sensor_id;sensor_type;location;lat;lon;timestamp;temperature;humidity
15231;DHT22;32569;51.762;8.564;2023-07-20T00:01:26;17.30;99.90
15231;DHT22;32569;51.762;8.564;2023-07-20T00:03:53;17.30;99.90
15231;DHT22;32569;51.762;8.564;2023-07-20T00:06:21;17.20;99.90
15231;DHT22;32569;51.762;8.564;2023-07-20T00:08:49;17.20;99.90
15231;DHT22;32569;51.762;8.564;2023-07-20T00:11:17;17.20;99.90
15231;DHT22;32569;51.762;8.564;2023-07-20T00:13:44;17.20;99.90
15231;DHT22;32569;51.762;8.564;2023-07-20T00:16:10;17.20;99.90
15231;DHT22;32569;51.762;8.564;2023-07-20T00:18:37;17.20;99.90
15231;DHT22;32569;51.762;8.564;2023-07-20T00:21:04;17.20;99.90
15231;DHT22;32569;51.762;8.564;2023-07-20T00:23:30;17.30;99.90
15231;DHT22;32569;51.762;8.564;2023-07-20T00:25:57;17.30;99.90
15231;DHT22;32569;51.762;8.564;2023-07-20T00:28:25;17.20;99.90
15231;DHT22;32569;51.762;8.564;2023-07-20T00:30:52;17.20;99.90
15231;DHT22;32569;51.762;8.564;2023-07-20T00:33:19;17.20;99.90
15231;DHT22;32569;51.762;8.564;2023-07-20T00:35:46;17.20;99.90
15231;DHT22;32569;51.762;8.564;2023-07-20T00:38:12;17.20;99.90
15231;DHT22;32569;51.762;8.564;2023-07-20T00:40:40;17.10;99.90
15231;DHT22;32569;51.762;8.564;2023-07-20T00:43:08;17.00;99.90
15231;DHT22;32569;51.762;8.564;2023-07-20T00:45:36;17.00;99.90
15231;DHT22;32569;51.762;8.564;2023-07-20T00:48:04;17.00;99.90
15231;DHT22;32569;51.762;8.564;2023-07-20T00:50:33;17.10;99.90
15231;DHT22;32569;51.762;8.564;2023-07-20T00:53:01;17.30;99.90
15231;DHT22;32569;51.762;8.564;2023-07-20T00:55:30;17.20;99.90
15231;DHT22;32569;51.762;8.564;2023-07-20T00:57:58;17.20;99.90
15231;DHT22;32569;51.762;8.564;2023-07-20T01:00:25;17.20;99.90
15231;DHT22;32569;51.762;8.564;2023-07-20T01:02:54;17.10;99.90
15231;DHT22;32569;51.762;8.564;2023-07-20T01:05:21;17.10;99.90
15231;DHT22;32569;51.762;8.564;2023-07-20T01:07:53;17.00;99.90
15231;DHT22;32569;51.762;8.564;2023-07-20T01:10:28;17.00;99.90
15231;DHT22;32569;51.762;8.564;2023-07-20T01:12:55;17.00;99.90
15231;DHT22;32569;51.762;8.564;2023-07-20T01:15:23;17.00;99.90
15231;DHT22;32569;51.762;8.564;2023-07-20T01:17:50;17.00;99.90
15231;DHT22;32569;51.762;8.564;2023-07-20T01:20:20;16.90;99.90
15231;DHT22;32569;51.762;8.564;2023-07-20T01:23:14;16.90;99.90
15231;DHT22;32569;51.762;8.564;2023-07-20T01:26:02;16.90;99.90
15231;DHT22;32569;51.762;8.564;2023-07-20T01:28:53;17.00;99.90
15231;DHT22;32569;51.762;8.564;2023-07-20T01:31:25;16.90;99.90
15231;DHT22;32569;51.762;8.564;2023-07-20T01:33:56;16.80;99.90
15231;DHT22;32569;51.762;8.564;2023-07-20T01:36:24;16.70;99.90
15231;DHT22;32569;51.762;8.564;2023-07-20T01:38:53;16.70;99.90
15231;DHT22;32569;51.762;8.564;2023-07-20T01:41:21;16.60;99.90
15231;DHT22;32569;51.762;8.564;2023-07-20T01:43:48;16.50;99.90
15231;DHT22;32569;51.762;8.564;2023-07-20T01:46:15;16.50;99.90
15231;DHT22;32569;51.762;8.564;2023-07-20T01:48:43;16.50;99.90
15231;DHT22;32569;51.762;8.564;2023-07-20T01:51:09;16.50;99.90
15231;DHT22;32569;51.762;8.564;2023-07-20T01:53:37;16.50;99.90
15231;DHT22;32569;51.762;8.564;2023-07-20T01:56:04;16.50;99.90
15231;DHT22;32569;51.762;8.564;2023-07-20T01:58:31;16.50;99.90
15231;DHT22;32569;51.762;8.564;2023-07-20T02:00:57;16.50;99.90
15231;DHT22;32569;51.762;8.564;2023-07-20T02:03:24;16.50;99.90
15231;DHT22;32569;51.762;8.564;2023-07-20T02:05:53;16.60;99.90
15231;DHT22;32569;51.762;8.564;2023-07-20T02:08:20;16.50;99.90
15231;DHT22;32569;51.762;8.564;2023-07-20T02:10:47;16.50;99.90
15231;DHT22;32569;51.762;8.564;2023-07-20T02:13:14;16.50;99.90
15231;DHT22;32569;51.762;8.564;2023-07-20T02:15:41;16.50;99.90
15231;DHT22;32569;51.762;8.564;2023-07-20T02:18:08;16.50;99.90
15231;DHT22;32569;51.762;8.564;2023-07-20T02:20:34;16.40;99.90
15231;DHT22;32569;51.762;8.564;2023-07-20T02:23:02;16.50;99.90
15231;DHT22;32569;51.762;8.564;2023-07-20T02:25:29;16.50;99.90
15231;DHT22;32569;51.762;8.564;2023-07-20T02:27:56;16.40;99.90
15231;DHT22;32569;51.762;8.564;2023-07-20T02:30:23;16.40;99.90
15231;DHT22;32569;51.762;8.564;2023-07-20T02:32:50;16.40;99.90
15231;DHT22;32569;51.762;8.564;2023-07-20T02:35:17;16.30;99.90
15231;DHT22;32569;51.762;8.564;2023-07-20T02:37:43;16.30;99.90
15231;DHT22;32569;51.762;8.564;2023-07-20T02:40:12;16.20;99.90
15231;DHT22;32569;51.762;8.564;2023-07-20T02:42:38;16.20;99.90
15231;DHT22;32569;51.762;8.564;2023-07-20T02:45:06;16.30;99.90
15231;DHT22;32569;51.762;8.564;2023-07-20T02:47:33;16.30;99.90
15231;DHT22;32569;51.762;8.564;2023-07-20T02:50:00;16.30;99.90
15231;DHT22;32569;51.762;8.564;2023-07-20T02:52:26;16.40;99.90
15231;DHT22;32569;51.762;8.564;2023-07-20T02:54:54;16.40;99.90
15231;DHT22;32569;51.762;8.564;2023-07-20T02:57:23;16.40;99.90
15231;DHT22;32569;51.762;8.564;2023-07-20T02:59:49;16.50;99.90
15231;DHT22;32569;51.762;8.564;2023-07-20T03:02:16;16.40;99.90
15231;DHT22;32569;51.762;8.564;2023-07-20T03:04:43;16.40;99.90
15231;DHT22;32569;51.762;8.564;2023-07-20T03:07:10;16.40;99.90
15231;DHT22;32569;51.762;8.564;2023-07-20T03:09:36;16.50;99.90
15231;DHT22;32569;51.762;8.564;2023-07-20T03:12:04;16.50;99.90
15231;DHT22;32569;51.762;8.564;2023-07-20T03:14:32;16.50;99.90
15231;DHT22;32569;51.762;8.564;2023-07-20T03:16:59;16.50;99.90
15231;DHT22;32569;51.762;8.564;2023-07-20T03:19:25;16.50;99.90
15231;DHT22;32569;51.762;8.564;2023-07-20T03:21:53;16.60;99.90
15231;DHT22;32569;51.762;8.564;2023-07-20T03:24:20;16.50;99.90
15231;DHT22;32569;51.762;8.564;2023-07-20T03:26:47;16.50;99.90
15231;DHT22;32569;51.762;8.564;2023-07-20T03:29:13;16.50;99.90
15231;DHT22;32569;51.762;8.564;2023-07-20T03:31:42;16.50;99.90
15231;DHT22;32569;51.762;8.564;2023-07-20T03:34:09;16.50;99.90
15231;DHT22;32569;51.762;8.564;2023-07-20T03:36:36;16.50;99.90
15231;DHT22;32569;51.762;8.564;2023-07-20T03:39:03;16.60;99.90
15231;DHT22;32569;51.762;8.564;2023-07-20T03:41:29;16.60;99.90
15231;DHT22;32569;51.762;8.564;2023-07-20T03:43:56;16.50;99.90
15231;DHT22;32569;51.762;8.564;2023-07-20T03:46:23;16.50;99.90
15231;DHT22;32569;51.762;8.564;2023-07-20T03:48:51;16.40;99.90
15231;DHT22;32569;51.762;8.564;2023-07-20T03:51:17;16.40;99.90
15231;DHT22;32569;51.762;8.564;2023-07-20T03:53:44;16.30;99.90
15231;DHT22;32569;51.762;8.564;2023-07-20T03:56:11;16.20;99.90
15231;DHT22;32569;51.762;8.564;2023-07-20T03:58:37;16.20;99.90
15231;DHT22;32569;51.762;8.564;2023-07-20T04:01:04;16.30;99.90
15231;DHT22;32569;51.762;8.564;2023-07-20T04:03:31;16.30;99.90
15231;DHT22;32569;51.762;8.564;2023-07-20T04:05:59;16.30;99.90
15231;DHT22;32569;51.762;8.564;2023-07-20T04:08:26;16.20;99.90
15231;DHT22;32569;51.762;8.564;2023-07-20T04:10:53;16.20;99.90
15231;DHT22;32569;51.762;8.564;2023-07-20T04:13:19;16.10;99.90
15231;DHT22;32569;51.762;8.564;2023-07-20T04:15:48;16.10;99.90
15231;DHT22;32569;51.762;8.564;2023-07-20T04:18:15;16.00;99.90
15231;DHT22;32569;51.762;8.564;2023-07-20T04:20:42;16.00;99.90
15231;DHT22;32569;51.762;8.564;2023-07-20T04:23:18;16.00;99.90
15231;DHT22;32569;51.762;8.564;2023-07-20T04:25:45;16.00;99.90
15231;DHT22;32569;51.762;8.564;2023-07-20T04:28:12;16.00;99.90
15231;DHT22;32569;51.762;8.564;2023-07-20T04:30:39;16.00;99.90
15231;DHT22;32569;51.762;8.564;2023-07-20T04:33:06;16.00;99.90
15231;DHT22;32569;51.762;8.564;2023-07-20T04:35:51;16.10;99.90
15231;DHT22;32569;51.762;8.564;2023-07-20T04:38:20;16.10;99.90
15231;DHT22;32569;51.762;8.564;2023-07-20T04:40:48;16.10;99.90
15231;DHT22;32569;51.762;8.564;2023-07-20T04:43:16;16.10;99.90
15231;DHT22;32569;51.762;8.564;2023-07-20T04:45:43;16.10;99.90
15231;DHT22;32569;51.762;8.564;2023-07-20T04:48:12;16.00;99.90
15231;DHT22;32569;51.762;8.564;2023-07-20T04:50:40;16.00;99.90
15231;DHT22;32569;51.762;8.564;2023-07-20T04:53:08;16.00;99.90
15231;DHT22;32569;51.762;8.564;2023-07-20T04:55:37;16.00;99.90
15231;DHT22;32569;51.762;8.564;2023-07-20T04:58:04;16.10;99.90
15231;DHT22;32569;51.762;8.564;2023-07-20T05:00:32;16.00;99.90
15231;DHT22;32569;51.762;8.564;2023-07-20T05:02:58;16.10;99.90
15231;DHT22;32569;51.762;8.564;2023-07-20T05:05:25;16.20;99.90
15231;DHT22;32569;51.762;8.564;2023-07-20T05:07:52;16.10;99.90
15231;DHT22;32569;51.762;8.564;2023-07-20T05:10:18;16.10;99.90
15231;DHT22;32569;51.762;8.564;2023-07-20T05:12:47;16.10;99.90
15231;DHT22;32569;51.762;8.564;2023-07-20T05:15:13;16.20;99.90
15231;DHT22;32569;51.762;8.564;2023-07-20T05:17:40;16.20;99.90
15231;DHT22;32569;51.762;8.564;2023-07-20T05:20:07;16.10;99.90
15231;DHT22;32569;51.762;8.564;2023-07-20T05:22:38;16.00;99.90
15231;DHT22;32569;51.762;8.564;2023-07-20T05:25:06;16.10;99.90
15231;DHT22;32569;51.762;8.564;2023-07-20T05:27:34;16.10;99.90
15231;DHT22;32569;51.762;8.564;2023-07-20T05:30:03;16.20;99.90
15231;DHT22;32569;51.762;8.564;2023-07-20T05:32:30;16.10;99.90
15231;DHT22;32569;51.762;8.564;2023-07-20T05:34:57;16.10;99.90
15231;DHT22;32569;51.762;8.564;2023-07-20T05:37:24;16.00;99.90
15231;DHT22;32569;51.762;8.564;2023-07-20T05:39:51;16.00;99.90
15231;DHT22;32569;51.762;8.564;2023-07-20T05:42:17;16.00;99.90
15231;DHT22;32569;51.762;8.564;2023-07-20T05:44:44;16.00;99.90
15231;DHT22;32569;51.762;8.564;2023-07-20T05:47:14;16.10;99.90
15231;DHT22;32569;51.762;8.564;2023-07-20T05:49:40;16.10;99.90
15231;DHT22;32569;51.762;8.564;2023-07-20T05:52:07;16.10;99.90
15231;DHT22;32569;51.762;8.564;2023-07-20T05:54:34;16.00;99.90
15231;DHT22;32569;51.762;8.564;2023-07-20T05:57:01;16.00;99.90
15231;DHT22;32569;51.762;8.564;2023-07-20T05:59:28;16.30;99.90
15231;DHT22;32569;51.762;8.564;2023-07-20T06:01:55;16.30;99.90
15231;DHT22;32569;51.762;8.564;2023-07-20T06:04:24;16.30;99.90
15231;DHT22;32569;51.762;8.564;2023-07-20T06:06:50;16.40;99.90
15231;DHT22;32569;51.762;8.564;2023-07-20T06:09:17;16.50;99.90
15231;DHT22;32569;51.762;8.564;2023-07-20T06:11:44;16.60;99.90
15231;DHT22;32569;51.762;8.564;2023-07-20T06:14:11;16.60;99.90
15231;DHT22;32569;51.762;8.564;2023-07-20T06:16:38;16.70;99.90
15231;DHT22;32569;51.762;8.564;2023-07-20T06:19:05;16.80;99.90
15231;DHT22;32569;51.762;8.564;2023-07-20T06:21:33;17.10;99.90
15231;DHT22;32569;51.762;8.564;2023-07-20T06:24:00;17.10;99.90
15231;DHT22;32569;51.762;8.564;2023-07-20T06:26:26;16.90;99.90
15231;DHT22;32569;51.762;8.564;2023-07-20T06:28:54;16.80;99.90
15231;DHT22;32569;51.762;8.564;2023-07-20T06:31:20;16.80;99.90
15231;DHT22;32569;51.762;8.564;2023-07-20T06:33:47;16.90;99.90
15231;DHT22;32569;51.762;8.564;2023-07-20T06:36:17;16.90;99.90
15231;DHT22;32569;51.762;8.564;2023-07-20T06:38:45;16.80;99.90
15231;DHT22;32569;51.762;8.564;2023-07-20T06:41:12;16.70;99.90
15231;DHT22;32569;51.762;8.564;2023-07-20T06:43:39;16.50;99.90
15231;DHT22;32569;51.762;8.564;2023-07-20T06:46:12;16.50;99.90
15231;DHT22;32569;51.762;8.564;2023-07-20T06:48:39;16.40;99.90
15231;DHT22;32569;51.762;8.564;2023-07-20T06:51:06;16.40;99.90
15231;DHT22;32569;51.762;8.564;2023-07-20T06:53:33;16.30;99.90
15231;DHT22;32569;51.762;8.564;2023-07-20T06:56:01;16.50;99.90
15231;DHT22;32569;51.762;8.564;2023-07-20T06:58:28;16.70;99.90
15231;DHT22;32569;51.762;8.564;2023-07-20T07:00:55;16.70;99.90
15231;DHT22;32569;51.762;8.564;2023-07-20T07:03:22;16.70;99.90
15231;DHT22;32569;51.762;8.564;2023-07-20T07:05:49;16.70;99.90
15231;DHT22;32569;51.762;8.564;2023-07-20T07:08:15;16.60;99.90
15231;DHT22;32569;51.762;8.564;2023-07-20T07:10:43;16.70;99.90
15231;DHT22;32569;51.762;8.564;2023-07-20T07:13:11;16.80;99.90
15231;DHT22;32569;51.762;8.564;2023-07-20T07:15:38;17.30;99.90
15231;DHT22;32569;51.762;8.564;2023-07-20T07:18:05;17.60;99.90
15231;DHT22;32569;51.762;8.564;2023-07-20T07:20:32;17.90;99.90
15231;DHT22;32569;51.762;8.564;2023-07-20T07:22:59;17.90;99.90
15231;DHT22;32569;51.762;8.564;2023-07-20T07:25:26;18.00;99.90
15231;DHT22;32569;51.762;8.564;2023-07-20T07:27:54;18.00;99.90
15231;DHT22;32569;51.762;8.564;2023-07-20T07:30:23;17.90;99.90
15231;DHT22;32569;51.762;8.564;2023-07-20T07:32:52;17.80;99.90
15231;DHT22;32569;51.762;8.564;2023-07-20T07:35:19;17.70;99.90
15231;DHT22;32569;51.762;8.564;2023-07-20T07:37:46;17.50;99.90
15231;DHT22;32569;51.762;8.564;2023-07-20T07:40:13;17.20;99.90
15231;DHT22;32569;51.762;8.564;2023-07-20T07:42:40;17.00;99.90
15231;DHT22;32569;51.762;8.564;2023-07-20T07:45:08;16.90;99.90
15231;DHT22;32569;51.762;8.564;2023-07-20T07:47:37;16.80;99.90
15231;DHT22;32569;51.762;8.564;2023-07-20T07:50:05;17.00;99.90
15231;DHT22;32569;51.762;8.564;2023-07-20T07:52:32;17.20;99.90
15231;DHT22;32569;51.762;8.564;2023-07-20T07:54:58;17.30;99.90
15231;DHT22;32569;51.762;8.564;2023-07-20T07:57:25;17.30;99.90
15231;DHT22;32569;51.762;8.564;2023-07-20T07:59:52;17.60;99.90
15231;DHT22;32569;51.762;8.564;2023-07-20T08:02:19;17.50;99.90
15231;DHT22;32569;51.762;8.564;2023-07-20T08:04:48;17.50;99.90
15231;DHT22;32569;51.762;8.564;2023-07-20T08:07:17;17.70;99.90
15231;DHT22;32569;51.762;8.564;2023-07-20T08:09:44;17.60;99.90
15231;DHT22;32569;51.762;8.564;2023-07-20T08:12:11;17.70;99.90
15231;DHT22;32569;51.762;8.564;2023-07-20T08:14:38;17.70;98.70
15231;DHT22;32569;51.762;8.564;2023-07-20T08:17:05;17.60;98.30
15231;DHT22;32569;51.762;8.564;2023-07-20T08:19:32;17.70;97.90
15231;DHT22;32569;51.762;8.564;2023-07-20T08:22:00;17.80;96.50
15231;DHT22;32569;51.762;8.564;2023-07-20T08:24:27;17.80;97.00
15231;DHT22;32569;51.762;8.564;2023-07-20T08:26:54;17.70;97.70
15231;DHT22;32569;51.762;8.564;2023-07-20T08:29:20;17.80;96.70
15231;DHT22;32569;51.762;8.564;2023-07-20T08:31:47;17.90;98.50
15231;DHT22;32569;51.762;8.564;2023-07-20T08:34:14;18.00;97.40
15231;DHT22;32569;51.762;8.564;2023-07-20T08:36:41;18.20;97.30
15231;DHT22;32569;51.762;8.564;2023-07-20T08:39:09;18.30;97.00
15231;DHT22;32569;51.762;8.564;2023-07-20T08:41:36;18.30;96.60
15231;DHT22;32569;51.762;8.564;2023-07-20T08:44:05;18.20;95.70
15231;DHT22;32569;51.762;8.564;2023-07-20T08:46:33;18.50;96.40
15231;DHT22;32569;51.762;8.564;2023-07-20T08:49:01;18.70;97.20
15231;DHT22;32569;51.762;8.564;2023-07-20T08:51:30;18.70;95.70
15231;DHT22;32569;51.762;8.564;2023-07-20T08:53:58;18.70;95.90
15231;DHT22;32569;51.762;8.564;2023-07-20T08:56:26;18.40;96.60
15231;DHT22;32569;51.762;8.564;2023-07-20T08:58:54;18.20;96.70
15231;DHT22;32569;51.762;8.564;2023-07-20T09:01:22;18.10;96.90
15231;DHT22;32569;51.762;8.564;2023-07-20T09:03:49;17.90;97.20
15231;DHT22;32569;51.762;8.564;2023-07-20T09:06:16;17.90;97.60
15231;DHT22;32569;51.762;8.564;2023-07-20T09:08:43;18.10;97.50
15231;DHT22;32569;51.762;8.564;2023-07-20T09:11:12;18.10;97.30
15231;DHT22;32569;51.762;8.564;2023-07-20T09:13:40;18.10;97.20
15231;DHT22;32569;51.762;8.564;2023-07-20T09:16:09;18.30;95.80
15231;DHT22;32569;51.762;8.564;2023-07-20T09:18:39;18.60;96.10
15231;DHT22;32569;51.762;8.564;2023-07-20T09:21:06;18.80;94.40
15231;DHT22;32569;51.762;8.564;2023-07-20T09:23:35;19.00;94.80
15231;DHT22;32569;51.762;8.564;2023-07-20T09:26:10;19.00;94.40
15231;DHT22;32569;51.762;8.564;2023-07-20T09:28:43;19.10;94.30
15231;DHT22;32569;51.762;8.564;2023-07-20T09:31:15;19.00;92.70
15231;DHT22;32569;51.762;8.564;2023-07-20T09:33:42;19.00;92.90
15231;DHT22;32569;51.762;8.564;2023-07-20T09:36:09;18.90;94.20
15231;DHT22;32569;51.762;8.564;2023-07-20T09:38:37;18.80;95.30
15231;DHT22;32569;51.762;8.564;2023-07-20T09:41:05;18.80;95.70
15231;DHT22;32569;51.762;8.564;2023-07-20T09:54:10;18.80;95.20
15231;DHT22;32569;51.762;8.564;2023-07-20T09:56:39;18.60;91.70
15231;DHT22;32569;51.762;8.564;2023-07-20T09:59:07;18.70;92.80
15231;DHT22;32569;51.762;8.564;2023-07-20T10:01:34;18.90;92.70
15231;DHT22;32569;51.762;8.564;2023-07-20T10:04:03;19.00;92.60
15231;DHT22;32569;51.762;8.564;2023-07-20T10:06:33;19.10;92.90
15231;DHT22;32569;51.762;8.564;2023-07-20T10:09:02;19.30;93.50
15231;DHT22;32569;51.762;8.564;2023-07-20T10:11:36;19.60;92.80
15231;DHT22;32569;51.762;8.564;2023-07-20T10:14:04;19.50;92.20
15231;DHT22;32569;51.762;8.564;2023-07-20T10:16:34;19.30;92.20
15231;DHT22;32569;51.762;8.564;2023-07-20T10:19:05;19.20;92.30
15231;DHT22;32569;51.762;8.564;2023-07-20T10:21:33;19.20;92.60
15231;DHT22;32569;51.762;8.564;2023-07-20T10:24:03;19.20;92.10
15231;DHT22;32569;51.762;8.564;2023-07-20T10:26:32;19.10;92.10
15231;DHT22;32569;51.762;8.564;2023-07-20T10:28:59;19.00;92.30
15231;DHT22;32569;51.762;8.564;2023-07-20T10:31:26;18.90;93.00
15231;DHT22;32569;51.762;8.564;2023-07-20T10:33:56;19.10;93.50
15231;DHT22;32569;51.762;8.564;2023-07-20T10:36:25;19.20;92.50
15231;DHT22;32569;51.762;8.564;2023-07-20T10:38:54;19.20;92.00
15231;DHT22;32569;51.762;8.564;2023-07-20T10:41:27;19.30;92.10
15231;DHT22;32569;51.762;8.564;2023-07-20T10:44:01;19.30;91.10
15231;DHT22;32569;51.762;8.564;2023-07-20T10:46:41;19.40;91.70
15231;DHT22;32569;51.762;8.564;2023-07-20T10:49:09;19.70;92.20
15231;DHT22;32569;51.762;8.564;2023-07-20T10:51:40;19.90;90.80
15231;DHT22;32569;51.762;8.564;2023-07-20T10:54:34;20.00;90.50
15231;DHT22;32569;51.762;8.564;2023-07-20T10:57:22;20.10;90.20
15231;DHT22;32569;51.762;8.564;2023-07-20T10:59:50;20.10;89.50
15231;DHT22;32569;51.762;8.564;2023-07-20T11:02:18;20.20;89.30
15231;DHT22;32569;51.762;8.564;2023-07-20T11:04:47;20.20;90.30
15231;DHT22;32569;51.762;8.564;2023-07-20T11:07:23;20.30;89.70
15231;DHT22;32569;51.762;8.564;2023-07-20T11:10:13;20.40;89.80
15231;DHT22;32569;51.762;8.564;2023-07-20T11:12:40;20.50;90.10
15231;DHT22;32569;51.762;8.564;2023-07-20T11:15:09;20.30;89.00
15231;DHT22;32569;51.762;8.564;2023-07-20T11:17:35;20.30;87.50
15231;DHT22;32569;51.762;8.564;2023-07-20T11:20:04;20.20;87.80
15231;DHT22;32569;51.762;8.564;2023-07-20T11:22:32;20.10;90.00
15231;DHT22;32569;51.762;8.564;2023-07-20T11:24:59;20.20;90.40
15231;DHT22;32569;51.762;8.564;2023-07-20T11:27:26;20.30;88.50
15231;DHT22;32569;51.762;8.564;2023-07-20T11:29:53;20.30;88.90
15231;DHT22;32569;51.762;8.564;2023-07-20T11:32:22;20.20;90.30
15231;DHT22;32569;51.762;8.564;2023-07-20T11:34:49;20.20;88.20
15231;DHT22;32569;51.762;8.564;2023-07-20T11:37:16;20.10;89.20
15231;DHT22;32569;51.762;8.564;2023-07-20T11:39:43;19.90;88.70
15231;DHT22;32569;51.762;8.564;2023-07-20T11:42:11;20.00;90.00
15231;DHT22;32569;51.762;8.564;2023-07-20T11:44:38;20.20;90.60
15231;DHT22;32569;51.762;8.564;2023-07-20T11:47:07;20.30;88.40
15231;DHT22;32569;51.762;8.564;2023-07-20T11:49:39;20.40;87.80
15231;DHT22;32569;51.762;8.564;2023-07-20T11:52:07;20.60;88.30
15231;DHT22;32569;51.762;8.564;2023-07-20T11:54:35;20.60;87.30
15231;DHT22;32569;51.762;8.564;2023-07-20T11:57:03;20.70;87.80
15231;DHT22;32569;51.762;8.564;2023-07-20T11:59:30;20.70;88.20
15231;DHT22;32569;51.762;8.564;2023-07-20T12:01:58;20.80;88.70
15231;DHT22;32569;51.762;8.564;2023-07-20T12:04:28;20.90;87.90
15231;DHT22;32569;51.762;8.564;2023-07-20T12:06:56;20.90;88.30
15231;DHT22;32569;51.762;8.564;2023-07-20T12:09:23;21.00;88.20
15231;DHT22;32569;51.762;8.564;2023-07-20T12:11:50;21.10;87.80
15231;DHT22;32569;51.762;8.564;2023-07-20T12:14:17;21.20;87.10
15231;DHT22;32569;51.762;8.564;2023-07-20T12:16:44;21.00;84.40
15231;DHT22;32569;51.762;8.564;2023-07-20T12:19:18;21.10;85.00
15231;DHT22;32569;51.762;8.564;2023-07-20T12:21:45;21.10;86.00
15231;DHT22;32569;51.762;8.564;2023-07-20T12:24:13;21.00;86.90
15231;DHT22;32569;51.762;8.564;2023-07-20T12:26:40;20.90;87.40
15231;DHT22;32569;51.762;8.564;2023-07-20T12:29:06;20.90;85.90
15231;DHT22;32569;51.762;8.564;2023-07-20T12:31:36;20.90;86.80
15231;DHT22;32569;51.762;8.564;2023-07-20T12:34:03;20.70;85.30
15231;DHT22;32569;51.762;8.564;2023-07-20T12:36:30;20.70;87.50
15231;DHT22;32569;51.762;8.564;2023-07-20T12:38:57;20.90;87.20
15231;DHT22;32569;51.762;8.564;2023-07-20T12:41:26;21.10;85.00
15231;DHT22;32569;51.762;8.564;2023-07-20T12:43:52;21.00;83.50
15231;DHT22;32569;51.762;8.564;2023-07-20T12:46:24;21.20;86.30
15231;DHT22;32569;51.762;8.564;2023-07-20T12:48:51;21.20;82.10
15231;DHT22;32569;51.762;8.564;2023-07-20T12:51:19;21.10;83.90
15231;DHT22;32569;51.762;8.564;2023-07-20T12:53:45;21.20;83.60
15231;DHT22;32569;51.762;8.564;2023-07-20T12:56:12;21.20;83.80
15231;DHT22;32569;51.762;8.564;2023-07-20T12:58:40;21.20;83.80
15231;DHT22;32569;51.762;8.564;2023-07-20T13:01:07;21.20;84.00
15231;DHT22;32569;51.762;8.564;2023-07-20T13:03:37;21.20;83.50
15231;DHT22;32569;51.762;8.564;2023-07-20T13:06:04;21.40;86.10
15231;DHT22;32569;51.762;8.564;2023-07-20T13:08:31;21.40;82.40
15231;DHT22;32569;51.762;8.564;2023-07-20T13:10:58;21.50;83.20
15231;DHT22;32569;51.762;8.564;2023-07-20T13:13:26;21.30;83.30
15231;DHT22;32569;51.762;8.564;2023-07-20T13:15:55;21.10;83.90
15231;DHT22;32569;51.762;8.564;2023-07-20T13:18:21;21.10;84.60
15231;DHT22;32569;51.762;8.564;2023-07-20T13:20:48;20.90;84.50
15231;DHT22;32569;51.762;8.564;2023-07-20T13:23:15;20.80;82.50
15231;DHT22;32569;51.762;8.564;2023-07-20T13:25:42;20.80;81.10
15231;DHT22;32569;51.762;8.564;2023-07-20T13:28:09;20.70;81.70
15231;DHT22;32569;51.762;8.564;2023-07-20T13:30:35;20.80;83.50
15231;DHT22;32569;51.762;8.564;2023-07-20T13:33:03;20.80;82.40
15231;DHT22;32569;51.762;8.564;2023-07-20T13:35:30;20.90;81.70
15231;DHT22;32569;51.762;8.564;2023-07-20T13:37:57;20.80;82.00
15231;DHT22;32569;51.762;8.564;2023-07-20T13:40:23;20.90;82.40
15231;DHT22;32569;51.762;8.564;2023-07-20T13:42:50;20.90;81.20
15231;DHT22;32569;51.762;8.564;2023-07-20T13:45:17;20.80;80.30
15231;DHT22;32569;51.762;8.564;2023-07-20T13:47:44;20.80;80.40
15231;DHT22;32569;51.762;8.564;2023-07-20T13:50:12;20.90;81.50
15231;DHT22;32569;51.762;8.564;2023-07-20T13:52:38;21.10;80.90
15231;DHT22;32569;51.762;8.564;2023-07-20T13:55:05;21.20;80.40
15231;DHT22;32569;51.762;8.564;2023-07-20T13:57:32;21.20;80.30
15231;DHT22;32569;51.762;8.564;2023-07-20T13:59:59;21.20;81.50
15231;DHT22;32569;51.762;8.564;2023-07-20T14:02:30;21.30;82.50
15231;DHT22;32569;51.762;8.564;2023-07-20T14:04:57;21.40;81.70
15231;DHT22;32569;51.762;8.564;2023-07-20T14:07:25;21.70;81.20
15231;DHT22;32569;51.762;8.564;2023-07-20T14:09:52;21.90;81.90
15231;DHT22;32569;51.762;8.564;2023-07-20T14:12:18;21.90;79.70
15231;DHT22;32569;51.762;8.564;2023-07-20T14:14:45;22.00;80.70
15231;DHT22;32569;51.762;8.564;2023-07-20T14:17:12;22.00;79.90
15231;DHT22;32569;51.762;8.564;2023-07-20T14:19:39;22.00;79.70
15231;DHT22;32569;51.762;8.564;2023-07-20T14:22:06;22.00;80.10
15231;DHT22;32569;51.762;8.564;2023-07-20T14:24:34;21.80;79.80
15231;DHT22;32569;51.762;8.564;2023-07-20T14:27:01;21.90;81.20
15231;DHT22;32569;51.762;8.564;2023-07-20T14:29:28;22.00;79.50
15231;DHT22;32569;51.762;8.564;2023-07-20T14:31:57;22.10;79.00
15231;DHT22;32569;51.762;8.564;2023-07-20T14:34:24;22.10;78.70
15231;DHT22;32569;51.762;8.564;2023-07-20T14:36:50;22.00;77.80
15231;DHT22;32569;51.762;8.564;2023-07-20T14:39:17;22.10;77.60
15231;DHT22;32569;51.762;8.564;2023-07-20T14:41:46;22.10;77.30
15231;DHT22;32569;51.762;8.564;2023-07-20T14:44:13;22.20;78.40
15231;DHT22;32569;51.762;8.564;2023-07-20T14:46:41;22.30;76.90
15231;DHT22;32569;51.762;8.564;2023-07-20T14:49:07;22.30;77.70
15231;DHT22;32569;51.762;8.564;2023-07-20T14:51:35;22.30;77.90
15231;DHT22;32569;51.762;8.564;2023-07-20T14:54:08;22.10;77.70
15231;DHT22;32569;51.762;8.564;2023-07-20T14:56:35;22.00;77.10
15231;DHT22;32569;51.762;8.564;2023-07-20T14:59:04;22.00;77.60
15231;DHT22;32569;51.762;8.564;2023-07-20T15:01:31;22.10;77.40
15231;DHT22;32569;51.762;8.564;2023-07-20T15:03:58;22.40;77.50
15231;DHT22;32569;51.762;8.564;2023-07-20T15:06:26;22.60;76.80
15231;DHT22;32569;51.762;8.564;2023-07-20T15:08:55;22.70;75.60
15231;DHT22;32569;51.762;8.564;2023-07-20T15:11:22;22.70;75.90
15231;DHT22;32569;51.762;8.564;2023-07-20T15:13:49;22.60;74.20
15231;DHT22;32569;51.762;8.564;2023-07-20T15:16:17;22.20;75.00
15231;DHT22;32569;51.762;8.564;2023-07-20T15:18:44;22.10;75.90
15231;DHT22;32569;51.762;8.564;2023-07-20T15:21:11;22.20;77.00
15231;DHT22;32569;51.762;8.564;2023-07-20T15:23:38;22.30;78.50
15231;DHT22;32569;51.762;8.564;2023-07-20T15:26:05;22.30;78.00
15231;DHT22;32569;51.762;8.564;2023-07-20T15:28:32;22.40;76.40
15231;DHT22;32569;51.762;8.564;2023-07-20T15:31:00;22.20;76.80
15231;DHT22;32569;51.762;8.564;2023-07-20T15:33:28;22.20;76.90
15231;DHT22;32569;51.762;8.564;2023-07-20T15:35:55;22.20;77.90
15231;DHT22;32569;51.762;8.564;2023-07-20T15:38:22;22.00;77.00
15231;DHT22;32569;51.762;8.564;2023-07-20T15:40:49;22.00;76.40
15231;DHT22;32569;51.762;8.564;2023-07-20T15:43:15;22.00;76.70
15231;DHT22;32569;51.762;8.564;2023-07-20T15:45:47;21.90;75.90